sensor_id;sensor_type;location;lat;lon;timestamp;P1;durP1;ratioP1;P2;durP2;ratioP2
55756;SDS011;41676;44.610;44.078;2022-11-04T00:02:49;6.18;;;4.20;;
55756;SDS011;41676;44.610;44.078;2022-11-04T00:07:50;5.80;;;3.28;;
55756;SDS011;41676;44.610;44.078;2022-11-04T00:13:09;6.13;;;3.28;;
55756;SDS011;41676;44.610;44.078;2022-11-04T00:18:10;18.20;;;3.92;;
55756;SDS011;41676;44.610;44.078;2022-11-04T00:23:10;10.05;;;3.97;;
55756;SDS011;41676;44.610;44.078;2022-11-04T00:28:30;7.22;;;4.30;;
55756;SDS011;41676;44.610;44.078;2022-11-04T00:33:43;5.90;;;4.07;;
55756;SDS011;41676;44.610;44.078;2022-11-04T00:38:44;8.48;;;5.97;;
55756;SDS011;41676;44.610;44.078;2022-11-04T00:43:47;13.55;;;5.82;;
55756;SDS011;41676;44.610;44.078;2022-11-04T00:48:48;9.63;;;4.93;;
55756;SDS011;41676;44.610;44.078;2022-11-04T00:53:49;13.32;;;8.60;;
55756;SDS011;41676;44.610;44.078;2022-11-04T00:58:50;9.32;;;5.32;;
55756;SDS011;41676;44.610;44.078;2022-11-04T01:03:51;7.22;;;4.90;;
55756;SDS011;41676;44.610;44.078;2022-11-04T01:08:56;15.80;;;4.93;;
55756;SDS011;41676;44.610;44.078;2022-11-04T01:13:58;9.75;;;4.30;;
55756;SDS011;41676;44.610;44.078;2022-11-04T01:18:59;10.35;;;4.63;;
55756;SDS011;41676;44.610;44.078;2022-11-04T01:24:01;8.85;;;5.05;;
55756;SDS011;41676;44.610;44.078;2022-11-04T01:29:02;7.82;;;4.60;;
55756;SDS011;41676;44.610;44.078;2022-11-04T01:34:03;8.40;;;4.00;;
55756;SDS011;41676;44.610;44.078;2022-11-04T01:39:04;8.57;;;4.85;;
55756;SDS011;41676;44.610;44.078;2022-11-04T01:49:43;8.77;;;5.78;;
55756;SDS011;41676;44.610;44.078;2022-11-04T01:54:49;7.88;;;5.43;;
55756;SDS011;41676;44.610;44.078;2022-11-04T01:59:53;10.90;;;4.97;;
55756;SDS011;41676;44.610;44.078;2022-11-04T02:04:55;7.75;;;4.53;;
55756;SDS011;41676;44.610;44.078;2022-11-04T02:09:56;9.63;;;6.18;;
55756;SDS011;41676;44.610;44.078;2022-11-04T02:14:57;27.05;;;6.20;;
55756;SDS011;41676;44.610;44.078;2022-11-04T02:30:32;10.35;;;7.07;;
55756;SDS011;41676;44.610;44.078;2022-11-04T02:46:07;11.07;;;5.70;;
55756;SDS011;41676;44.610;44.078;2022-11-04T02:51:30;10.80;;;5.35;;
55756;SDS011;41676;44.610;44.078;2022-11-04T02:56:42;21.30;;;6.22;;
55756;SDS011;41676;44.610;44.078;2022-11-04T03:01:47;10.60;;;5.57;;
55756;SDS011;41676;44.610;44.078;2022-11-04T03:06:51;12.00;;;7.03;;
55756;SDS011;41676;44.610;44.078;2022-11-04T03:11:58;11.85;;;7.18;;
55756;SDS011;41676;44.610;44.078;2022-11-04T03:17:05;14.02;;;6.45;;
55756;SDS011;41676;44.610;44.078;2022-11-04T03:22:28;24.75;;;7.00;;
55756;SDS011;41676;44.610;44.078;2022-11-04T03:33:15;11.82;;;7.85;;
55756;SDS011;41676;44.610;44.078;2022-11-04T03:38:22;17.75;;;6.97;;
55756;SDS011;41676;44.610;44.078;2022-11-04T03:43:23;13.40;;;6.00;;
55756;SDS011;41676;44.610;44.078;2022-11-04T03:48:27;15.00;;;6.22;;
55756;SDS011;41676;44.610;44.078;2022-11-04T03:53:28;22.83;;;13.73;;
55756;SDS011;41676;44.610;44.078;2022-11-04T03:58:44;20.55;;;13.75;;
55756;SDS011;41676;44.610;44.078;2022-11-04T04:04:02;19.15;;;8.30;;
55756;SDS011;41676;44.610;44.078;2022-11-04T04:14:24;12.48;;;7.68;;
55756;SDS011;41676;44.610;44.078;2022-11-04T04:19:41;10.57;;;7.53;;
55756;SDS011;41676;44.610;44.078;2022-11-04T04:24:51;12.93;;;7.35;;
55756;SDS011;41676;44.610;44.078;2022-11-04T04:30:14;12.70;;;6.80;;
55756;SDS011;41676;44.610;44.078;2022-11-04T04:35:16;16.85;;;7.50;;
55756;SDS011;41676;44.610;44.078;2022-11-04T04:40:41;11.65;;;7.38;;
55756;SDS011;41676;44.610;44.078;2022-11-04T04:46:01;12.63;;;6.70;;
55756;SDS011;41676;44.610;44.078;2022-11-04T04:51:02;11.15;;;7.13;;
55756;SDS011;41676;44.610;44.078;2022-11-04T04:56:03;14.57;;;7.85;;
55756;SDS011;41676;44.610;44.078;2022-11-04T05:01:04;11.57;;;6.85;;
55756;SDS011;41676;44.610;44.078;2022-11-04T05:06:05;9.57;;;6.50;;
55756;SDS011;41676;44.610;44.078;2022-11-04T05:11:06;12.27;;;7.20;;
55756;SDS011;41676;44.610;44.078;2022-11-04T05:16:08;28.45;;;7.40;;
55756;SDS011;41676;44.610;44.078;2022-11-04T05:21:11;9.43;;;5.80;;
55756;SDS011;41676;44.610;44.078;2022-11-04T05:26:13;8.53;;;6.30;;
55756;SDS011;41676;44.610;44.078;2022-11-04T05:31:14;20.13;;;6.65;;
55756;SDS011;41676;44.610;44.078;2022-11-04T05:36:15;15.15;;;7.70;;
55756;SDS011;41676;44.610;44.078;2022-11-04T05:41:17;12.00;;;6.55;;
55756;SDS011;41676;44.610;44.078;2022-11-04T05:46:27;14.80;;;6.93;;
55756;SDS011;41676;44.610;44.078;2022-11-04T05:51:29;10.23;;;7.90;;
55756;SDS011;41676;44.610;44.078;2022-11-04T05:56:31;12.45;;;7.25;;
55756;SDS011;41676;44.610;44.078;2022-11-04T06:01:32;10.98;;;7.72;;
55756;SDS011;41676;44.610;44.078;2022-11-04T06:06:37;10.20;;;6.68;;
55756;SDS011;41676;44.610;44.078;2022-11-04T06:11:38;11.73;;;7.53;;
55756;SDS011;41676;44.610;44.078;2022-11-04T06:16:39;18.85;;;6.88;;
55756;SDS011;41676;44.610;44.078;2022-11-04T06:21:40;9.35;;;7.38;;
55756;SDS011;41676;44.610;44.078;2022-11-04T06:26:41;9.15;;;6.90;;
55756;SDS011;41676;44.610;44.078;2022-11-04T06:31:42;9.55;;;7.55;;
55756;SDS011;41676;44.610;44.078;2022-11-04T06:36:42;12.65;;;7.15;;
55756;SDS011;41676;44.610;44.078;2022-11-04T06:41:43;14.80;;;7.75;;
55756;SDS011;41676;44.610;44.078;2022-11-04T06:46:44;19.25;;;7.95;;
55756;SDS011;41676;44.610;44.078;2022-11-04T06:51:45;11.65;;;7.50;;
55756;SDS011;41676;44.610;44.078;2022-11-04T06:56:47;14.98;;;8.10;;
55756;SDS011;41676;44.610;44.078;2022-11-04T07:01:48;13.23;;;8.45;;
55756;SDS011;41676;44.610;44.078;2022-11-04T07:06:50;12.40;;;7.85;;
55756;SDS011;41676;44.610;44.078;2022-11-04T07:11:51;22.50;;;12.85;;
55756;SDS011;41676;44.610;44.078;2022-11-04T07:16:52;22.05;;;12.52;;
55756;SDS011;41676;44.610;44.078;2022-11-04T07:21:53;19.30;;;9.88;;
55756;SDS011;41676;44.610;44.078;2022-11-04T07:26:54;27.90;;;11.55;;
55756;SDS011;41676;44.610;44.078;2022-11-04T07:31:55;26.52;;;17.52;;
55756;SDS011;41676;44.610;44.078;2022-11-04T07:36:56;18.63;;;12.13;;
55756;SDS011;41676;44.610;44.078;2022-11-04T07:41:57;18.67;;;12.60;;
55756;SDS011;41676;44.610;44.078;2022-11-04T07:46:58;19.95;;;13.63;;
55756;SDS011;41676;44.610;44.078;2022-11-04T07:51:58;32.92;;;16.50;;
55756;SDS011;41676;44.610;44.078;2022-11-04T07:56:59;21.90;;;15.20;;
55756;SDS011;41676;44.610;44.078;2022-11-04T08:02:00;21.17;;;13.90;;
55756;SDS011;41676;44.610;44.078;2022-11-04T08:07:01;21.50;;;12.95;;
55756;SDS011;41676;44.610;44.078;2022-11-04T08:12:02;19.25;;;13.05;;
55756;SDS011;41676;44.610;44.078;2022-11-04T08:17:04;18.83;;;13.38;;
55756;SDS011;41676;44.610;44.078;2022-11-04T08:22:05;15.63;;;10.07;;
55756;SDS011;41676;44.610;44.078;2022-11-04T08:27:07;17.92;;;9.88;;
55756;SDS011;41676;44.610;44.078;2022-11-04T08:32:09;13.20;;;8.60;;
55756;SDS011;41676;44.610;44.078;2022-11-04T08:37:13;9.05;;;6.45;;
55756;SDS011;41676;44.610;44.078;2022-11-04T08:42:15;10.25;;;6.70;;
55756;SDS011;41676;44.610;44.078;2022-11-04T08:47:15;11.20;;;6.82;;
55756;SDS011;41676;44.610;44.078;2022-11-04T08:52:17;15.70;;;6.45;;
55756;SDS011;41676;44.610;44.078;2022-11-04T08:57:17;9.55;;;6.03;;
55756;SDS011;41676;44.610;44.078;2022-11-04T09:02:18;13.32;;;6.10;;
55756;SDS011;41676;44.610;44.078;2022-11-04T09:07:20;9.93;;;4.53;;
55756;SDS011;41676;44.610;44.078;2022-11-04T09:12:20;8.60;;;4.63;;
55756;SDS011;41676;44.610;44.078;2022-11-04T09:17:21;6.00;;;4.78;;
55756;SDS011;41676;44.610;44.078;2022-11-04T09:22:22;9.63;;;6.30;;
55756;SDS011;41676;44.610;44.078;2022-11-04T09:27:23;8.65;;;5.70;;
55756;SDS011;41676;44.610;44.078;2022-11-04T09:32:24;5.88;;;4.10;;
55756;SDS011;41676;44.610;44.078;2022-11-04T09:37:25;7.90;;;4.00;;
55756;SDS011;41676;44.610;44.078;2022-11-04T09:47:46;7.70;;;4.07;;
55756;SDS011;41676;44.610;44.078;2022-11-04T09:52:56;8.38;;;4.47;;
55756;SDS011;41676;44.610;44.078;2022-11-04T09:58:04;8.32;;;5.57;;
55756;SDS011;41676;44.610;44.078;2022-11-04T10:24:57;7.05;;;4.30;;
55756;SDS011;41676;44.610;44.078;2022-11-04T10:30:00;7.85;;;5.07;;
55756;SDS011;41676;44.610;44.078;2022-11-04T10:35:49;7.85;;;4.60;;
55756;SDS011;41676;44.610;44.078;2022-11-04T10:40:31;7.63;;;4.85;;
55756;SDS011;41676;44.610;44.078;2022-11-04T10:45:50;8.57;;;4.50;;
55756;SDS011;41676;44.610;44.078;2022-11-04T10:50:58;6.32;;;4.30;;
55756;SDS011;41676;44.610;44.078;2022-11-04T11:01:24;6.78;;;4.25;;
55756;SDS011;41676;44.610;44.078;2022-11-04T11:06:37;6.45;;;4.07;;
55756;SDS011;41676;44.610;44.078;2022-11-04T11:11:47;5.60;;;3.17;;
55756;SDS011;41676;44.610;44.078;2022-11-04T11:16:49;7.80;;;3.55;;
55756;SDS011;41676;44.610;44.078;2022-11-04T11:21:51;7.40;;;4.00;;
55756;SDS011;41676;44.610;44.078;2022-11-04T11:26:56;7.70;;;4.03;;
55756;SDS011;41676;44.610;44.078;2022-11-04T11:31:59;8.97;;;3.50;;
55756;SDS011;41676;44.610;44.078;2022-11-04T11:37:01;5.15;;;3.70;;
55756;SDS011;41676;44.610;44.078;2022-11-04T11:42:10;6.38;;;4.00;;
55756;SDS011;41676;44.610;44.078;2022-11-04T11:52:34;5.97;;;3.47;;
55756;SDS011;41676;44.610;44.078;2022-11-04T12:08:39;6.82;;;3.63;;
55756;SDS011;41676;44.610;44.078;2022-11-04T12:13:47;4.93;;;3.30;;
55756;SDS011;41676;44.610;44.078;2022-11-04T12:19:11;12.35;;;3.75;;
55756;SDS011;41676;44.610;44.078;2022-11-04T12:24:45;6.53;;;3.28;;
55756;SDS011;41676;44.610;44.078;2022-11-04T12:30:03;5.43;;;3.10;;
55756;SDS011;41676;44.610;44.078;2022-11-04T12:41:14;7.40;;;3.40;;
55756;SDS011;41676;44.610;44.078;2022-11-04T12:51:21;11.57;;;3.90;;
55756;SDS011;41676;44.610;44.078;2022-11-04T12:56:37;9.35;;;3.95;;
55756;SDS011;41676;44.610;44.078;2022-11-04T13:01:50;5.95;;;3.15;;
55756;SDS011;41676;44.610;44.078;2022-11-04T13:06:57;4.88;;;3.40;;
55756;SDS011;41676;44.610;44.078;2022-11-04T13:17:38;7.80;;;3.90;;
55756;SDS011;41676;44.610;44.078;2022-11-04T13:22:44;12.73;;;4.32;;
55756;SDS011;41676;44.610;44.078;2022-11-04T13:27:47;17.15;;;4.93;;
55756;SDS011;41676;44.610;44.078;2022-11-04T13:38:53;25.30;;;4.75;;
55756;SDS011;41676;44.610;44.078;2022-11-04T13:43:51;11.38;;;4.68;;
55756;SDS011;41676;44.610;44.078;2022-11-04T14:00:04;25.80;;;8.50;;
55756;SDS011;41676;44.610;44.078;2022-11-04T14:10:38;18.17;;;6.07;;
55756;SDS011;41676;44.610;44.078;2022-11-04T14:21:03;10.90;;;6.78;;
55756;SDS011;41676;44.610;44.078;2022-11-04T14:26:08;12.75;;;6.13;;
55756;SDS011;41676;44.610;44.078;2022-11-04T14:31:11;8.68;;;5.97;;
55756;SDS011;41676;44.610;44.078;2022-11-04T14:46:30;11.32;;;6.57;;
55756;SDS011;41676;44.610;44.078;2022-11-04T14:51:38;8.93;;;5.65;;
55756;SDS011;41676;44.610;44.078;2022-11-04T14:56:40;8.60;;;5.97;;
55756;SDS011;41676;44.610;44.078;2022-11-04T15:01:41;9.13;;;6.15;;
55756;SDS011;41676;44.610;44.078;2022-11-04T15:06:42;8.18;;;5.97;;
55756;SDS011;41676;44.610;44.078;2022-11-04T15:12:02;9.55;;;6.22;;
55756;SDS011;41676;44.610;44.078;2022-11-04T15:17:29;9.55;;;5.85;;
55756;SDS011;41676;44.610;44.078;2022-11-04T15:22:32;9.77;;;5.95;;
55756;SDS011;41676;44.610;44.078;2022-11-04T15:27:33;8.38;;;6.68;;
55756;SDS011;41676;44.610;44.078;2022-11-04T15:32:34;14.13;;;6.47;;
55756;SDS011;41676;44.610;44.078;2022-11-04T15:37:35;9.50;;;6.55;;
55756;SDS011;41676;44.610;44.078;2022-11-04T15:47:43;9.25;;;6.40;;
55756;SDS011;41676;44.610;44.078;2022-11-04T15:52:46;10.77;;;7.90;;
55756;SDS011;41676;44.610;44.078;2022-11-04T15:57:50;11.60;;;7.82;;
55756;SDS011;41676;44.610;44.078;2022-11-04T16:02:59;21.35;;;8.63;;
55756;SDS011;41676;44.610;44.078;2022-11-04T16:08:33;10.85;;;8.00;;
55756;SDS011;41676;44.610;44.078;2022-11-04T16:13:28;13.43;;;9.13;;
55756;SDS011;41676;44.610;44.078;2022-11-04T16:23:43;15.10;;;10.00;;
55756;SDS011;41676;44.610;44.078;2022-11-04T16:28:47;14.10;;;10.27;;
55756;SDS011;41676;44.610;44.078;2022-11-04T16:33:53;15.23;;;10.93;;
55756;SDS011;41676;44.610;44.078;2022-11-04T16:38:55;15.52;;;10.50;;
55756;SDS011;41676;44.610;44.078;2022-11-04T16:43:57;16.05;;;9.43;;
55756;SDS011;41676;44.610;44.078;2022-11-04T16:48:58;14.00;;;10.48;;
55756;SDS011;41676;44.610;44.078;2022-11-04T16:53:59;14.15;;;9.68;;
55756;SDS011;41676;44.610;44.078;2022-11-04T16:59:00;13.52;;;10.20;;
55756;SDS011;41676;44.610;44.078;2022-11-04T17:04:01;13.32;;;10.32;;
55756;SDS011;41676;44.610;44.078;2022-11-04T17:09:05;15.60;;;12.38;;
55756;SDS011;41676;44.610;44.078;2022-11-04T17:14:17;17.02;;;12.85;;
55756;SDS011;41676;44.610;44.078;2022-11-04T17:19:18;13.85;;;10.88;;
55756;SDS011;41676;44.610;44.078;2022-11-04T17:24:19;19.77;;;13.30;;
55756;SDS011;41676;44.610;44.078;2022-11-04T17:29:19;16.65;;;12.02;;
55756;SDS011;41676;44.610;44.078;2022-11-04T17:34:20;20.85;;;12.45;;
55756;SDS011;41676;44.610;44.078;2022-11-04T17:39:25;16.73;;;12.88;;
55756;SDS011;41676;44.610;44.078;2022-11-04T17:44:27;15.60;;;12.52;;
55756;SDS011;41676;44.610;44.078;2022-11-04T17:49:27;14.23;;;12.27;;
55756;SDS011;41676;44.610;44.078;2022-11-04T17:54:28;17.88;;;13.15;;
55756;SDS011;41676;44.610;44.078;2022-11-04T17:59:29;18.23;;;12.23;;
55756;SDS011;41676;44.610;44.078;2022-11-04T18:04:30;28.48;;;13.00;;
55756;SDS011;41676;44.610;44.078;2022-11-04T18:09:31;19.85;;;12.45;;
55756;SDS011;41676;44.610;44.078;2022-11-04T18:14:34;17.52;;;11.65;;
55756;SDS011;41676;44.610;44.078;2022-11-04T18:19:34;17.27;;;11.65;;
55756;SDS011;41676;44.610;44.078;2022-11-04T18:24:35;29.25;;;13.48;;
55756;SDS011;41676;44.610;44.078;2022-11-04T18:29:36;24.05;;;13.15;;
55756;SDS011;41676;44.610;44.078;2022-11-04T18:34:37;16.45;;;12.80;;
55756;SDS011;41676;44.610;44.078;2022-11-04T18:39:38;18.30;;;13.95;;
55756;SDS011;41676;44.610;44.078;2022-11-04T18:44:41;15.73;;;12.15;;
55756;SDS011;41676;44.610;44.078;2022-11-04T18:49:42;17.60;;;13.90;;
55756;SDS011;41676;44.610;44.078;2022-11-04T18:54:43;17.17;;;13.75;;
55756;SDS011;41676;44.610;44.078;2022-11-04T18:59:45;22.10;;;14.20;;
55756;SDS011;41676;44.610;44.078;2022-11-04T19:04:46;15.48;;;12.10;;
55756;SDS011;41676;44.610;44.078;2022-11-04T19:09:47;23.25;;;15.40;;
55756;SDS011;41676;44.610;44.078;2022-11-04T19:14:48;19.63;;;15.05;;
55756;SDS011;41676;44.610;44.078;2022-11-04T19:19:49;22.13;;;15.30;;
55756;SDS011;41676;44.610;44.078;2022-11-04T19:24:50;23.67;;;14.88;;
55756;SDS011;41676;44.610;44.078;2022-11-04T19:29:52;18.20;;;14.68;;
55756;SDS011;41676;44.610;44.078;2022-11-04T19:34:53;16.50;;;14.68;;
55756;SDS011;41676;44.610;44.078;2022-11-04T19:39:53;19.40;;;14.80;;
55756;SDS011;41676;44.610;44.078;2022-11-04T19:44:55;20.48;;;14.10;;
55756;SDS011;41676;44.610;44.078;2022-11-04T19:49:56;21.67;;;17.00;;
55756;SDS011;41676;44.610;44.078;2022-11-04T19:54:56;20.02;;;16.83;;
55756;SDS011;41676;44.610;44.078;2022-11-04T19:59:57;27.67;;;16.45;;
55756;SDS011;41676;44.610;44.078;2022-11-04T20:04:58;19.17;;;15.10;;
55756;SDS011;41676;44.610;44.078;2022-11-04T20:09:59;22.08;;;18.00;;
55756;SDS011;41676;44.610;44.078;2022-11-04T20:15:00;21.83;;;18.00;;
55756;SDS011;41676;44.610;44.078;2022-11-04T20:20:01;28.88;;;18.80;;
55756;SDS011;41676;44.610;44.078;2022-11-04T20:25:02;28.77;;;21.67;;
55756;SDS011;41676;44.610;44.078;2022-11-04T20:30:04;20.73;;;17.25;;
55756;SDS011;41676;44.610;44.078;2022-11-04T20:35:05;19.20;;;15.70;;
55756;SDS011;41676;44.610;44.078;2022-11-04T20:40:06;22.45;;;17.13;;
55756;SDS011;41676;44.610;44.078;2022-11-04T20:45:08;23.45;;;16.73;;
55756;SDS011;41676;44.610;44.078;2022-11-04T20:50:08;24.35;;;18.50;;
55756;SDS011;41676;44.610;44.078;2022-11-04T20:55:09;24.30;;;18.65;;
55756;SDS011;41676;44.610;44.078;2022-11-04T21:00:10;24.35;;;18.95;;
55756;SDS011;41676;44.610;44.078;2022-11-04T21:05:12;26.00;;;19.20;;
55756;SDS011;41676;44.610;44.078;2022-11-04T21:10:14;26.48;;;18.48;;
55756;SDS011;41676;44.610;44.078;2022-11-04T21:15:15;27.17;;;19.38;;
55756;SDS011;41676;44.610;44.078;2022-11-04T21:20:39;24.58;;;18.33;;
55756;SDS011;41676;44.610;44.078;2022-11-04T21:25:42;25.52;;;17.42;;
55756;SDS011;41676;44.610;44.078;2022-11-04T21:30:46;23.17;;;17.63;;
55756;SDS011;41676;44.610;44.078;2022-11-04T21:35:49;21.77;;;15.05;;
55756;SDS011;41676;44.610;44.078;2022-11-04T21:40:50;22.17;;;13.95;;
55756;SDS011;41676;44.610;44.078;2022-11-04T21:45:51;18.38;;;14.80;;
55756;SDS011;41676;44.610;44.078;2022-11-04T21:50:52;26.38;;;17.98;;
55756;SDS011;41676;44.610;44.078;2022-11-04T21:55:53;25.98;;;17.58;;
55756;SDS011;41676;44.610;44.078;2022-11-04T22:00:54;24.50;;;17.80;;
55756;SDS011;41676;44.610;44.078;2022-11-04T22:16:17;20.27;;;16.30;;
55756;SDS011;41676;44.610;44.078;2022-11-04T22:21:20;21.13;;;14.80;;
55756;SDS011;41676;44.610;44.078;2022-11-04T22:26:23;20.80;;;16.35;;
55756;SDS011;41676;44.610;44.078;2022-11-04T22:31:30;20.52;;;16.58;;
55756;SDS011;41676;44.610;44.078;2022-11-04T22:36:36;20.75;;;16.38;;
55756;SDS011;41676;44.610;44.078;2022-11-04T22:41:37;19.55;;;12.77;;
55756;SDS011;41676;44.610;44.078;2022-11-04T22:46:38;19.10;;;14.13;;
55756;SDS011;41676;44.610;44.078;2022-11-04T22:51:39;24.00;;;16.20;;
55756;SDS011;41676;44.610;44.078;2022-11-04T22:56:40;18.77;;;13.95;;
55756;SDS011;41676;44.610;44.078;2022-11-04T23:01:41;19.90;;;14.85;;
55756;SDS011;41676;44.610;44.078;2022-11-04T23:06:42;24.92;;;17.27;;
55756;SDS011;41676;44.610;44.078;2022-11-04T23:11:43;19.05;;;15.70;;
55756;SDS011;41676;44.610;44.078;2022-11-04T23:17:02;22.98;;;16.15;;
55756;SDS011;41676;44.610;44.078;2022-11-04T23:22:33;23.38;;;16.52;;
55756;SDS011;41676;44.610;44.078;2022-11-04T23:27:53;20.33;;;15.05;;
55756;SDS011;41676;44.610;44.078;2022-11-04T23:33:30;23.50;;;16.80;;
55756;SDS011;41676;44.610;44.078;2022-11-04T23:38:49;20.45;;;16.05;;
55756;SDS011;41676;44.610;44.078;2022-11-04T23:43:50;23.02;;;16.20;;
55756;SDS011;41676;44.610;44.078;2022-11-04T23:48:51;22.10;;;15.65;;
55756;SDS011;41676;44.610;44.078;2022-11-04T23:54:10;20.45;;;16.02;;
55756;SDS011;41676;44.610;44.078;2022-11-04T23:59:29;22.65;;;17.35;;
